Flight Track Log - Related Links

Times and Time Zones

All times are in EDT time to prevent confusion due to time zone crossing. See the UAL573 flight status page for this flight to view local times or setup timezone preferences in your user account.

Time Position Orientation Groundspeed Altitude Reporting Facility
EDT Latitude Longitude Course Direction KTS MPH feet Rate Location/Type
Wed 04:36:41 PM 32.7667 -117.2500 289° West 191 220 2,300  Level Southern California TRACON
Wed 04:37:55 PM 32.8061 -117.3244 302° West 242 278 5,400 2,824 Climbing Los Angeles Center
Wed 04:38:00 PM 32.9526 -117.4955 309° West  Level FlightAware Approximate
Wed 04:38:57 PM 32.8567 -117.3919 312° West 267 307 8,700  Level Los Angeles Center
Wed 04:39:00 PM 33.0246 -117.6011 310° West  Level FlightAware Approximate
Wed 04:40:00 PM 33.0954 -117.7075 301° West  Level FlightAware Approximate
Wed 04:40:00 PM 32.9117 -117.4656 312° West 293 337 10,900  Level Los Angeles Center
Wed 04:41:00 PM 33.1650 -117.8134 301° West  Level FlightAware Approximate
Wed 04:41:02 PM 32.9764 -117.5567 310° West 352 405 11,900  Level Los Angeles Center
Wed 04:42:00 PM 33.2063 -117.9387 289° West  Level FlightAware Approximate
Wed 04:42:04 PM 33.0522 -117.6581 312° West 400 460 14,000  Level Los Angeles Center
Wed 04:43:06 PM 33.1278 -117.7617 311° West 412 474 15,900 1,839 Climbing Los Angeles Center
Wed 04:44:08 PM 33.2058 -117.9117 302° West 444 511 17,800 1,839 Climbing Los Angeles Center
Wed 04:45:10 PM 33.2522 -118.0514 292° West 452 520 19,700 2,468 Climbing Los Angeles Center
Wed 04:46:12 PM 33.2989 -118.1853 293° West 431 496 22,900 2,419 Climbing Los Angeles Center
Wed 04:47:14 PM 33.3400 -118.3147 291° West 416 479 24,700 1,500 Climbing Los Angeles Center
Wed 04:48:16 PM 33.3978 -118.4403 299° West 436 502 26,000 624 Climbing Los Angeles Center
Wed 04:49:19 PM 33.5000 -118.5253 325° Northwest 444 511 26,000  Level Los Angeles Center
Wed 04:50:21 PM 33.6008 -118.6133 324° Northwest 444 511 26,000  Level Los Angeles Center
Wed 04:51:23 PM 33.7225 -118.7156 325° Northwest 440 506 26,000 387 Level Los Angeles Center
Wed 04:52:25 PM 33.8236 -118.8019 325° Northwest 441 507 26,800 1,065 Climbing Los Angeles Center
Wed 04:53:27 PM 33.9264 -118.8881 325° Northwest 447 514 28,200 1,403 Climbing Los Angeles Center
Wed 04:54:29 PM 34.0314 -118.9786 324° Northwest 458 527 29,700 1,500 Climbing Los Angeles Center
Wed 04:55:31 PM 34.1264 -119.0825 318° Northwest 462 532 31,300 1,452 Climbing Los Angeles Center
Wed 04:56:33 PM 34.1997 -119.2056 306° West 453 521 32,700 1,645 Climbing Los Angeles Center
Wed 04:57:35 PM 34.2825 -119.3586 303° West 452 520 34,700 1,680 Climbing Los Angeles Center
Wed 04:58:38 PM 34.3519 -119.4831 304° West 446 513 36,200 1,440 Climbing Los Angeles Center
Wed 04:59:40 PM 34.4181 -119.6067 303° West 438 504 37,700 871 Climbing Los Angeles Center
Wed 05:00:42 PM 34.4828 -119.7250 304° West 431 496 38,000 145 Climbing Los Angeles Center
Wed 05:01:44 PM 34.5636 -119.8328 312° West 430 495 38,000  Level Los Angeles Center
Wed 05:02:46 PM 34.6678 -119.9439 319° Northwest 438 504 38,000  Level Los Angeles Center
Wed 05:03:48 PM 34.7600 -120.0428 319° Northwest 441 507 38,000 -48 Level Los Angeles Center
Wed 05:04:50 PM 34.8492 -120.1397 318° Northwest 442 509 37,900 -48 Descending Los Angeles Center
Wed 05:05:52 PM 34.9386 -120.2397 318° Northwest 441 507 37,900 48 Level Los Angeles Center
Wed 05:06:54 PM 35.0481 -120.3606 318° Northwest 448 516 38,000 48 Climbing Los Angeles Center
Wed 05:07:57 PM 35.1394 -120.4608 318° Northwest 449 517 38,000 -48 Level Los Angeles Center
Wed 05:08:59 PM 35.2300 -120.5619 318° Northwest 451 519 37,900 -48 Descending Los Angeles Center
Wed 05:10:01 PM 35.3203 -120.6642 317° Northwest 447 514 37,900  Level Los Angeles Center
Wed 05:11:03 PM 35.4031 -120.7672 315° West 429 494 37,900  Level Los Angeles Center
Wed 05:12:05 PM 35.4211 -120.9214 278° West 389 448 37,900  Level Los Angeles Center
Wed 05:13:07 PM 35.4214 -121.0508 270° West 383 441 37,900  Level Los Angeles Center
Wed 05:14:09 PM 35.4217 -121.1819 270° West 385 443 37,900 -484 Level Los Angeles Center
Wed 05:15:11 PM 35.4242 -121.3136 271° West 387 445 36,900 -1,355 Descending Los Angeles Center
Wed 05:16:13 PM 35.4647 -121.4358 292° West 389 448 35,100 -1,600 Descending Los Angeles Center
Wed 05:18:26 PM 35.6186 -121.6619 310° West 385 443 31,700 -1,515 Descending Oakland Center
Wed 05:19:27 PM 35.7286 -121.6894 349° North 394 453 30,200 -1,366 Descending Oakland Center
Wed 05:20:29 PM 35.8344 -121.7189 347° North 387 445 28,900 -1,258 Descending Oakland Center
Wed 05:21:31 PM 35.9367 -121.7458 348° North 375 432 27,600 -1,306 Descending Oakland Center
Wed 05:22:33 PM 36.0342 -121.7739 347° North 363 418 26,200 -1,366 Descending Oakland Center
Wed 05:23:34 PM 36.1322 -121.7994 348° North 356 410 24,800 -1,463 Descending Oakland Center
Wed 05:24:36 PM 36.2425 -121.8289 348° North 351 404 23,200 -1,415 Descending Oakland Center
Wed 05:25:37 PM 36.3336 -121.8550 347° North 338 389 21,900 -1,317 Descending Oakland Center
Wed 05:26:39 PM 36.4253 -121.8814 347° North 336 387 20,500 -968 Descending Oakland Center
Wed 05:27:41 PM 36.5128 -121.9042 348° North 321 369 19,900 -732 Descending Oakland Center
Wed 05:28:42 PM 36.5978 -121.9278 347° North 313 360 19,000 -1,073 Descending Oakland Center
Wed 05:29:44 PM 36.6833 -121.9517 347° North 312 359 17,700 -1,452 Descending Oakland Center
Wed 05:30:46 PM 36.7917 -121.9797 348° North 330 380 16,000 -1,610 Descending Oakland Center
Wed 05:31:47 PM 36.8847 -122.0000 350° North 336 387 14,400 -1,512 Descending Oakland Center
Wed 05:32:49 PM 36.9731 -122.0244 348° North 326 375 12,900 -1,452 Descending Oakland Center
Wed 05:33:51 PM 37.0581 -122.0478 348° North 314 361 11,400 -1,403 Descending Oakland Center
Wed 05:34:53 PM 37.1389 -122.0681 349° North 300 345 10,000 -732 Descending Oakland Center
Wed 05:35:54 PM 37.2211 -122.0889 349° North 299 344 9,900 -488 Descending Oakland Center
Wed 05:36:56 PM 37.2653 -122.1575 309° West 254 292 9,000 -1,161 Descending Oakland Center
Wed 05:37:58 PM 37.3417 -122.1578 360° North 245 282 7,500 -1,171 Descending Oakland Center
Wed 05:38:59 PM 37.4083 -122.1364 14° North 246 283 6,600 -823 Descending Oakland Center
Wed 05:40:02 PM 37.4667 -122.1167 15° North 201 231 5,800 -976 Descending Northern Cal TRACON
Wed 05:41:02 PM 37.5167 -122.1000 15° North 206 237 4,600 -1,200 Descending Northern Cal TRACON
Wed 05:42:02 PM 37.5333 -122.1667 288° West 200 230 3,400 -1,200 Descending Northern Cal TRACON

Login

Don't have an account? Register now (free) for customized features, flight alerts, and more!